KSTC/STC METAR and TAF weather

Enter ICAO airport designator
Station Type Date Time Source
KSTC METAR 2019/06/17 13:02 UTC NOAA

KSTC 171302Z VRB03KT 10SM SCT006 17/14 A2997 RMK AO2 T01670144


Station Type Date Time Source
KSTC Decoded METAR 2019/06/17 13:02 UTC NOAA

ST. CLOUD REGIONAL AIRPORT, MN, United States (KSTC) 45-33N 094-03W
Jun 17, 2019 - 09:02 AM EDT / 2019.06.17 1302 UTC
Wind: Variable at 3 MPH (3 KT):0
Visibility: 10 mile(s):0
Sky conditions: partly cloudy
Temperature: 62.1 F (16.7 C)
Dew Point: 57.9 F (14.4 C)
Relative Humidity: 86%
Pressure (altimeter): 29.97 in. Hg (1014 hPa)
ob: KSTC 171302Z VRB03KT 10SM SCT006 17/14 A2997 RMK AO2 T01670144
cycle: 13

Station Type Date Time Source
KSTC TAF 2019/06/17 13:12 UTC NOAA

TAF
AMD KSTC 171310Z 1713/1812 19003KT P6SM SCT007
FM171400 25005KT P6SM SCT100
FM171500 29009G15KT P6SM SCT030 BKN100
FM180000 31006KT P6SM SCT100

Example: see airport list